sensor_id;sensor_type;location;lat;lon;timestamp;pressure;altitude;pressure_sealevel;temperature;humidity
16664;BME280;8445;51.270;9.434;2023-05-23T00:01:02;99241.19;;;25.22;37.30
16664;BME280;8445;51.270;9.434;2023-05-23T00:03:30;99233.59;;;25.44;37.41
16664;BME280;8445;51.270;9.434;2023-05-23T00:05:57;99238.44;;;25.68;37.40
16664;BME280;8445;51.270;9.434;2023-05-23T00:08:23;99240.78;;;25.57;37.89
16664;BME280;8445;51.270;9.434;2023-05-23T00:10:49;99240.16;;;25.87;37.22
16664;BME280;8445;51.270;9.434;2023-05-23T00:13:14;99228.53;;;26.05;36.80
16664;BME280;8445;51.270;9.434;2023-05-23T00:15:44;99236.88;;;26.04;37.40
16664;BME280;8445;51.270;9.434;2023-05-23T00:18:11;99238.16;;;26.01;37.17
16664;BME280;8445;51.270;9.434;2023-05-23T00:20:37;99240.72;;;26.22;37.06
16664;BME280;8445;51.270;9.434;2023-05-23T00:23:05;99234.25;;;26.23;37.13
16664;BME280;8445;51.270;9.434;2023-05-23T00:25:32;99238.63;;;26.24;36.86
16664;BME280;8445;51.270;9.434;2023-05-23T00:27:59;99238.19;;;26.27;36.99
16664;BME280;8445;51.270;9.434;2023-05-23T00:30:25;99240.44;;;26.30;36.92
16664;BME280;8445;51.270;9.434;2023-05-23T00:32:52;99254.31;;;26.40;37.11
16664;BME280;8445;51.270;9.434;2023-05-23T00:35:20;99258.91;;;26.40;36.86
16664;BME280;8445;51.270;9.434;2023-05-23T00:37:48;99256.72;;;26.30;37.33
16664;BME280;8445;51.270;9.434;2023-05-23T00:40:14;99252.50;;;26.53;37.15
16664;BME280;8445;51.270;9.434;2023-05-23T00:42:40;99262.63;;;26.45;37.58
16664;BME280;8445;51.270;9.434;2023-05-23T00:45:06;99265.00;;;26.35;38.15
16664;BME280;8445;51.270;9.434;2023-05-23T00:47:32;99264.16;;;26.34;38.20
16664;BME280;8445;51.270;9.434;2023-05-23T00:49:58;99273.88;;;26.24;39.13
16664;BME280;8445;51.270;9.434;2023-05-23T00:52:24;99272.53;;;26.33;38.73
16664;BME280;8445;51.270;9.434;2023-05-23T00:54:49;99272.28;;;26.09;38.93
16664;BME280;8445;51.270;9.434;2023-05-23T00:57:15;99267.28;;;26.38;38.47
16664;BME280;8445;51.270;9.434;2023-05-23T00:59:40;99264.41;;;26.33;38.59
16664;BME280;8445;51.270;9.434;2023-05-23T01:02:07;99270.53;;;26.22;38.96
16664;BME280;8445;51.270;9.434;2023-05-23T01:04:34;99273.09;;;26.16;39.15
16664;BME280;8445;51.270;9.434;2023-05-23T01:07:00;99278.38;;;25.72;40.23
16664;BME280;8445;51.270;9.434;2023-05-23T01:09:27;99271.22;;;26.17;38.97
16664;BME280;8445;51.270;9.434;2023-05-23T01:12:06;99274.53;;;26.19;39.61
16664;BME280;8445;51.270;9.434;2023-05-23T01:14:50;99274.13;;;26.15;41.12
16664;BME280;8445;51.270;9.434;2023-05-23T01:17:38;99270.31;;;26.67;39.15
16664;BME280;8445;51.270;9.434;2023-05-23T01:20:29;99271.75;;;26.88;39.56
16664;BME280;8445;51.270;9.434;2023-05-23T01:28:27;99257.03;;;25.89;40.28
16664;BME280;8445;51.270;9.434;2023-05-23T01:30:56;99262.44;;;25.89;38.93
16664;BME280;8445;51.270;9.434;2023-05-23T01:33:23;99250.25;;;25.99;38.05
16664;BME280;8445;51.270;9.434;2023-05-23T01:35:49;99257.91;;;25.83;37.80
16664;BME280;8445;51.270;9.434;2023-05-23T01:38:15;99265.88;;;25.78;37.79
16664;BME280;8445;51.270;9.434;2023-05-23T01:40:43;99262.53;;;25.44;38.43
16664;BME280;8445;51.270;9.434;2023-05-23T01:43:09;99256.47;;;25.49;37.79
16664;BME280;8445;51.270;9.434;2023-05-23T01:45:34;99265.97;;;25.19;38.22
16664;BME280;8445;51.270;9.434;2023-05-23T01:48:02;99270.34;;;25.20;37.66
16664;BME280;8445;51.270;9.434;2023-05-23T01:50:28;99271.25;;;25.00;38.19
16664;BME280;8445;51.270;9.434;2023-05-23T01:52:55;99275.00;;;24.99;37.73
16664;BME280;8445;51.270;9.434;2023-05-23T01:55:25;99270.88;;;24.97;37.61
16664;BME280;8445;51.270;9.434;2023-05-23T01:57:54;99268.81;;;24.85;38.00
16664;BME280;8445;51.270;9.434;2023-05-23T02:00:20;99275.03;;;24.93;37.87
16664;BME280;8445;51.270;9.434;2023-05-23T02:02:46;99276.84;;;25.06;37.98
16664;BME280;8445;51.270;9.434;2023-05-23T02:05:14;99277.28;;;25.02;38.04
16664;BME280;8445;51.270;9.434;2023-05-23T02:07:39;99282.25;;;25.06;38.53
16664;BME280;8445;51.270;9.434;2023-05-23T02:10:07;99288.78;;;24.78;39.28
16664;BME280;8445;51.270;9.434;2023-05-23T02:12:33;99296.91;;;24.78;39.61
16664;BME280;8445;51.270;9.434;2023-05-23T02:14:58;99295.63;;;24.87;39.09
16664;BME280;8445;51.270;9.434;2023-05-23T02:17:24;99295.75;;;25.19;38.23
16664;BME280;8445;51.270;9.434;2023-05-23T02:19:49;99295.22;;;24.90;39.09
16664;BME280;8445;51.270;9.434;2023-05-23T02:22:15;99286.72;;;24.60;40.03
16664;BME280;8445;51.270;9.434;2023-05-23T02:24:40;99289.22;;;24.75;39.47
16664;BME280;8445;51.270;9.434;2023-05-23T02:27:06;99300.59;;;25.04;38.69
16664;BME280;8445;51.270;9.434;2023-05-23T02:29:31;99293.66;;;25.14;38.45
16664;BME280;8445;51.270;9.434;2023-05-23T02:31:57;99294.84;;;24.66;39.34
16664;BME280;8445;51.270;9.434;2023-05-23T02:34:22;99301.66;;;24.89;39.22
16664;BME280;8445;51.270;9.434;2023-05-23T02:36:48;99301.13;;;25.26;38.37
16664;BME280;8445;51.270;9.434;2023-05-23T02:39:13;99306.47;;;25.39;37.82
16664;BME280;8445;51.270;9.434;2023-05-23T02:41:39;99309.03;;;25.27;38.47
16664;BME280;8445;51.270;9.434;2023-05-23T02:44:05;99309.47;;;25.24;38.22
16664;BME280;8445;51.270;9.434;2023-05-23T02:46:30;99307.50;;;24.86;39.23
16664;BME280;8445;51.270;9.434;2023-05-23T02:48:56;99313.75;;;25.39;37.88
16664;BME280;8445;51.270;9.434;2023-05-23T02:51:21;99313.13;;;25.50;37.99
16664;BME280;8445;51.270;9.434;2023-05-23T02:53:47;99312.31;;;25.36;38.39
16664;BME280;8445;51.270;9.434;2023-05-23T02:56:12;99313.53;;;25.47;37.77
16664;BME280;8445;51.270;9.434;2023-05-23T02:58:40;99322.47;;;25.54;37.63
16664;BME280;8445;51.270;9.434;2023-05-23T03:01:05;99318.94;;;25.54;37.92
16664;BME280;8445;51.270;9.434;2023-05-23T03:03:32;99322.69;;;25.53;37.90
16664;BME280;8445;51.270;9.434;2023-05-23T03:06:02;99324.81;;;25.44;38.04
16664;BME280;8445;51.270;9.434;2023-05-23T03:08:29;99320.63;;;25.48;38.01
16664;BME280;8445;51.270;9.434;2023-05-23T03:10:54;99323.97;;;25.43;38.05
16664;BME280;8445;51.270;9.434;2023-05-23T03:13:21;99323.06;;;25.04;38.89
16664;BME280;8445;51.270;9.434;2023-05-23T03:15:46;99333.13;;;25.36;38.10
16664;BME280;8445;51.270;9.434;2023-05-23T03:18:12;99333.31;;;24.82;39.61
16664;BME280;8445;51.270;9.434;2023-05-23T03:20:37;99323.06;;;25.11;38.63
16664;BME280;8445;51.270;9.434;2023-05-23T03:23:03;99334.44;;;25.26;38.50
16664;BME280;8445;51.270;9.434;2023-05-23T03:25:28;99335.13;;;25.08;38.69
16664;BME280;8445;51.270;9.434;2023-05-23T03:27:56;99337.41;;;25.18;38.65
16664;BME280;8445;51.270;9.434;2023-05-23T03:30:24;99339.69;;;25.14;38.39
16664;BME280;8445;51.270;9.434;2023-05-23T03:32:50;99334.13;;;24.89;39.16
16664;BME280;8445;51.270;9.434;2023-05-23T03:35:15;99332.25;;;24.96;38.75
16664;BME280;8445;51.270;9.434;2023-05-23T03:37:41;99347.66;;;24.89;38.70
16664;BME280;8445;51.270;9.434;2023-05-23T03:40:07;99343.69;;;24.98;38.77
16664;BME280;8445;51.270;9.434;2023-05-23T03:42:35;99342.81;;;25.11;38.46
16664;BME280;8445;51.270;9.434;2023-05-23T03:45:01;99345.78;;;24.96;38.64
16664;BME280;8445;51.270;9.434;2023-05-23T03:47:26;99353.31;;;24.74;39.20
16664;BME280;8445;51.270;9.434;2023-05-23T03:49:53;99342.50;;;24.67;39.20
16664;BME280;8445;51.270;9.434;2023-05-23T03:52:18;99353.91;;;24.09;40.87
16664;BME280;8445;51.270;9.434;2023-05-23T03:54:44;99357.44;;;24.23;39.92
16664;BME280;8445;51.270;9.434;2023-05-23T03:57:09;99365.69;;;23.88;40.96
16664;BME280;8445;51.270;9.434;2023-05-23T03:59:36;99370.16;;;24.36;39.92
16664;BME280;8445;51.270;9.434;2023-05-23T04:02:04;99370.69;;;23.91;40.64
16664;BME280;8445;51.270;9.434;2023-05-23T04:04:30;99360.97;;;24.17;39.86
16664;BME280;8445;51.270;9.434;2023-05-23T04:06:56;99369.38;;;23.73;40.91
16664;BME280;8445;51.270;9.434;2023-05-23T04:09:23;99375.25;;;23.83;40.71
16664;BME280;8445;51.270;9.434;2023-05-23T04:11:50;99377.25;;;23.54;41.55
16664;BME280;8445;51.270;9.434;2023-05-23T04:14:17;99372.22;;;24.13;39.88
16664;BME280;8445;51.270;9.434;2023-05-23T04:16:45;99374.75;;;24.42;39.19
16664;BME280;8445;51.270;9.434;2023-05-23T04:19:15;99378.28;;;24.36;39.62
16664;BME280;8445;51.270;9.434;2023-05-23T04:21:40;99378.66;;;24.26;39.76
16664;BME280;8445;51.270;9.434;2023-05-23T04:24:08;99379.50;;;24.33;39.43
16664;BME280;8445;51.270;9.434;2023-05-23T04:26:33;99383.88;;;24.48;39.31
16664;BME280;8445;51.270;9.434;2023-05-23T04:29:02;99387.00;;;24.45;39.48
16664;BME280;8445;51.270;9.434;2023-05-23T04:31:30;99376.78;;;24.20;39.79
16664;BME280;8445;51.270;9.434;2023-05-23T04:33:55;99378.66;;;24.19;39.72
16664;BME280;8445;51.270;9.434;2023-05-23T04:36:24;99383.91;;;24.41;39.03
16664;BME280;8445;51.270;9.434;2023-05-23T04:38:52;99381.16;;;24.21;39.78
16664;BME280;8445;51.270;9.434;2023-05-23T04:41:18;99382.41;;;24.11;39.96
16664;BME280;8445;51.270;9.434;2023-05-23T04:43:50;99390.22;;;23.93;40.38
16664;BME280;8445;51.270;9.434;2023-05-23T04:46:26;99383.03;;;23.51;41.18
16664;BME280;8445;51.270;9.434;2023-05-23T04:49:11;99389.78;;;23.89;40.53
16664;BME280;8445;51.270;9.434;2023-05-23T04:51:38;99385.63;;;23.87;40.15
16664;BME280;8445;51.270;9.434;2023-05-23T04:54:14;99391.63;;;23.68;40.58
16664;BME280;8445;51.270;9.434;2023-05-23T04:56:39;99388.53;;;23.85;40.50
16664;BME280;8445;51.270;9.434;2023-05-23T04:59:05;99389.25;;;24.21;39.58
16664;BME280;8445;51.270;9.434;2023-05-23T05:01:33;99393.63;;;24.08;40.34
16664;BME280;8445;51.270;9.434;2023-05-23T05:03:59;99386.59;;;24.27;39.99
16664;BME280;8445;51.270;9.434;2023-05-23T05:06:24;99392.63;;;24.50;39.91
16664;BME280;8445;51.270;9.434;2023-05-23T05:08:51;99395.31;;;24.50;40.10
16664;BME280;8445;51.270;9.434;2023-05-23T05:11:19;99398.00;;;24.09;41.13
16664;BME280;8445;51.270;9.434;2023-05-23T05:13:44;99406.09;;;24.16;41.03
16664;BME280;8445;51.270;9.434;2023-05-23T05:16:10;99406.16;;;24.63;40.01
16664;BME280;8445;51.270;9.434;2023-05-23T05:18:37;99399.09;;;24.82;39.38
16664;BME280;8445;51.270;9.434;2023-05-23T05:21:03;99401.38;;;24.65;39.78
16664;BME280;8445;51.270;9.434;2023-05-23T05:23:30;99401.16;;;24.60;39.54
16664;BME280;8445;51.270;9.434;2023-05-23T05:25:57;99405.31;;;24.42;40.30
16664;BME280;8445;51.270;9.434;2023-05-23T05:28:22;99403.66;;;24.68;39.92
16664;BME280;8445;51.270;9.434;2023-05-23T05:30:50;99398.22;;;24.62;40.39
16664;BME280;8445;51.270;9.434;2023-05-23T05:33:20;99395.31;;;24.77;39.70
16664;BME280;8445;51.270;9.434;2023-05-23T05:35:53;99399.06;;;25.02;39.32
16664;BME280;8445;51.270;9.434;2023-05-23T05:38:19;99399.06;;;24.89;39.64
16664;BME280;8445;51.270;9.434;2023-05-23T05:40:45;99414.66;;;25.14;38.71
16664;BME280;8445;51.270;9.434;2023-05-23T05:43:13;99400.31;;;24.93;39.37
16664;BME280;8445;51.270;9.434;2023-05-23T05:45:41;99399.91;;;24.96;39.31
16664;BME280;8445;51.270;9.434;2023-05-23T05:48:09;99404.91;;;24.86;39.26
16664;BME280;8445;51.270;9.434;2023-05-23T05:50:36;99401.78;;;24.82;39.58
16664;BME280;8445;51.270;9.434;2023-05-23T05:53:01;99397.41;;;24.81;39.65
16664;BME280;8445;51.270;9.434;2023-05-23T05:55:28;99400.31;;;24.53;40.22
16664;BME280;8445;51.270;9.434;2023-05-23T05:57:54;99408.22;;;24.68;40.15
16664;BME280;8445;51.270;9.434;2023-05-23T06:00:20;99406.94;;;25.04;39.50
16664;BME280;8445;51.270;9.434;2023-05-23T06:02:51;99403.22;;;24.98;39.60
16664;BME280;8445;51.270;9.434;2023-05-23T06:05:28;99412.34;;;25.24;39.13
16664;BME280;8445;51.270;9.434;2023-05-23T06:07:54;99406.88;;;25.31;39.04
16664;BME280;8445;51.270;9.434;2023-05-23T06:10:20;99399.97;;;25.42;38.92
16664;BME280;8445;51.270;9.434;2023-05-23T06:12:46;99399.66;;;25.11;40.02
16664;BME280;8445;51.270;9.434;2023-05-23T06:15:11;99402.59;;;24.83;40.53
16664;BME280;8445;51.270;9.434;2023-05-23T06:17:39;99411.53;;;25.04;40.06
16664;BME280;8445;51.270;9.434;2023-05-23T06:20:05;99413.63;;;24.88;40.58
16664;BME280;8445;51.270;9.434;2023-05-23T06:22:36;99420.72;;;24.89;41.06
16664;BME280;8445;51.270;9.434;2023-05-23T06:25:03;99411.28;;;25.25;40.37
16664;BME280;8445;51.270;9.434;2023-05-23T06:27:28;99419.78;;;25.49;40.24
16664;BME280;8445;51.270;9.434;2023-05-23T06:29:53;99408.94;;;25.49;40.38
16664;BME280;8445;51.270;9.434;2023-05-23T06:32:20;99416.66;;;25.39;40.28
16664;BME280;8445;51.270;9.434;2023-05-23T06:34:46;99405.63;;;25.47;40.74
16664;BME280;8445;51.270;9.434;2023-05-23T06:37:14;99412.44;;;26.02;40.53
16664;BME280;8445;51.270;9.434;2023-05-23T06:39:42;99407.97;;;26.21;40.75
16664;BME280;8445;51.270;9.434;2023-05-23T06:42:12;99401.94;;;26.12;40.35
16664;BME280;8445;51.270;9.434;2023-05-23T06:44:51;99411.22;;;26.62;40.10
16664;BME280;8445;51.270;9.434;2023-05-23T06:47:17;99413.19;;;26.23;41.23
16664;BME280;8445;51.270;9.434;2023-05-23T06:49:42;99410.84;;;26.26;41.46
16664;BME280;8445;51.270;9.434;2023-05-23T06:52:08;99409.09;;;25.68;42.55
16664;BME280;8445;51.270;9.434;2023-05-23T06:54:34;99406.66;;;25.92;42.62
16664;BME280;8445;51.270;9.434;2023-05-23T06:57:00;99419.25;;;26.11;42.52
16664;BME280;8445;51.270;9.434;2023-05-23T06:59:25;99422.28;;;26.35;42.88
16664;BME280;8445;51.270;9.434;2023-05-23T07:01:51;99414.59;;;26.57;42.35
16664;BME280;8445;51.270;9.434;2023-05-23T07:04:17;99422.41;;;26.72;41.31
16664;BME280;8445;51.270;9.434;2023-05-23T07:06:42;99425.28;;;26.52;41.07
16664;BME280;8445;51.270;9.434;2023-05-23T07:09:08;99430.19;;;25.98;41.43
16664;BME280;8445;51.270;9.434;2023-05-23T07:11:36;99424.84;;;25.84;41.10
16664;BME280;8445;51.270;9.434;2023-05-23T07:14:04;99430.94;;;25.73;40.68
16664;BME280;8445;51.270;9.434;2023-05-23T07:16:36;99420.16;;;25.59;41.07
16664;BME280;8445;51.270;9.434;2023-05-23T07:19:05;99418.41;;;25.79;40.58
16664;BME280;8445;51.270;9.434;2023-05-23T07:21:33;99412.16;;;25.78;40.98
16664;BME280;8445;51.270;9.434;2023-05-23T07:23:59;99415.88;;;25.84;40.87
16664;BME280;8445;51.270;9.434;2023-05-23T07:26:26;99417.03;;;26.01;40.67
16664;BME280;8445;51.270;9.434;2023-05-23T07:28:54;99420.88;;;26.26;40.81
16664;BME280;8445;51.270;9.434;2023-05-23T07:31:20;99424.81;;;26.30;40.79
16664;BME280;8445;51.270;9.434;2023-05-23T07:33:46;99433.94;;;25.97;41.49
16664;BME280;8445;51.270;9.434;2023-05-23T07:36:18;99432.16;;;26.23;40.77
16664;BME280;8445;51.270;9.434;2023-05-23T07:38:43;99435.59;;;25.98;41.13
16664;BME280;8445;51.270;9.434;2023-05-23T07:41:09;99436.88;;;25.50;42.06
16664;BME280;8445;51.270;9.434;2023-05-23T07:43:35;99442.00;;;26.10;41.39
16664;BME280;8445;51.270;9.434;2023-05-23T07:46:00;99437.53;;;26.61;40.77
16664;BME280;8445;51.270;9.434;2023-05-23T07:48:26;99431.59;;;26.71;40.31
16664;BME280;8445;51.270;9.434;2023-05-23T07:50:52;99442.97;;;26.55;40.59
16664;BME280;8445;51.270;9.434;2023-05-23T07:53:20;99443.53;;;26.38;41.26
16664;BME280;8445;51.270;9.434;2023-05-23T07:55:47;99450.50;;;26.53;40.89
16664;BME280;8445;51.270;9.434;2023-05-23T07:58:13;99453.44;;;26.51;41.02
16664;BME280;8445;51.270;9.434;2023-05-23T08:00:40;99446.03;;;26.65;40.67
16664;BME280;8445;51.270;9.434;2023-05-23T08:03:15;99451.34;;;26.53;40.85
16664;BME280;8445;51.270;9.434;2023-05-23T08:05:52;99451.56;;;26.19;41.30
16664;BME280;8445;51.270;9.434;2023-05-23T08:08:17;99448.91;;;26.06;41.42
16664;BME280;8445;51.270;9.434;2023-05-23T08:10:48;99455.19;;;26.45;40.83
16664;BME280;8445;51.270;9.434;2023-05-23T08:13:27;99454.28;;;26.52;41.49
16664;BME280;8445;51.270;9.434;2023-05-23T08:16:22;99465.00;;;26.72;40.71
16664;BME280;8445;51.270;9.434;2023-05-23T08:18:48;99468.44;;;26.54;41.66
16664;BME280;8445;51.270;9.434;2023-05-23T08:21:13;99468.94;;;26.44;41.93
16664;BME280;8445;51.270;9.434;2023-05-23T08:23:39;99475.66;;;26.41;41.88
16664;BME280;8445;51.270;9.434;2023-05-23T08:26:05;99477.53;;;26.66;41.33
16664;BME280;8445;51.270;9.434;2023-05-23T08:28:32;99475.47;;;26.36;41.40
16664;BME280;8445;51.270;9.434;2023-05-23T08:31:00;99481.84;;;26.16;41.17
16664;BME280;8445;51.270;9.434;2023-05-23T08:33:26;99488.41;;;25.88;41.47
16664;BME280;8445;51.270;9.434;2023-05-23T08:35:55;99481.75;;;25.84;41.23
16664;BME280;8445;51.270;9.434;2023-05-23T08:38:21;99483.47;;;25.65;41.25
16664;BME280;8445;51.270;9.434;2023-05-23T08:41:00;99486.44;;;25.50;41.40
16664;BME280;8445;51.270;9.434;2023-05-23T08:43:27;99486.44;;;25.57;41.15
16664;BME280;8445;51.270;9.434;2023-05-23T08:45:53;99489.31;;;25.69;41.35
16664;BME280;8445;51.270;9.434;2023-05-23T08:48:19;99493.88;;;25.68;41.46
16664;BME280;8445;51.270;9.434;2023-05-23T08:50:50;99492.81;;;25.76;41.27
16664;BME280;8445;51.270;9.434;2023-05-23T08:53:19;99492.25;;;25.60;41.55
16664;BME280;8445;51.270;9.434;2023-05-23T08:55:49;99518.25;;;25.75;41.15
16664;BME280;8445;51.270;9.434;2023-05-23T08:58:19;99512.09;;;25.00;42.24
16664;BME280;8445;51.270;9.434;2023-05-23T09:00:51;99510.84;;;25.23;42.30
16664;BME280;8445;51.270;9.434;2023-05-23T09:03:17;99513.88;;;25.74;42.50
16664;BME280;8445;51.270;9.434;2023-05-23T09:06:07;99513.44;;;26.36;41.99
16664;BME280;8445;51.270;9.434;2023-05-23T09:08:33;99516.38;;;26.67;42.24
16664;BME280;8445;51.270;9.434;2023-05-23T09:11:00;99511.78;;;26.99;40.99
16664;BME280;8445;51.270;9.434;2023-05-23T09:13:32;99516.44;;;27.11;40.93
16664;BME280;8445;51.270;9.434;2023-05-23T09:18:39;99522.16;;;26.77;41.20
16664;BME280;8445;51.270;9.434;2023-05-23T09:21:07;99525.31;;;26.35;42.03
16664;BME280;8445;51.270;9.434;2023-05-23T09:23:37;99529.59;;;26.17;41.46
16664;BME280;8445;51.270;9.434;2023-05-23T09:26:08;99532.53;;;25.96;41.29
16664;BME280;8445;51.270;9.434;2023-05-23T09:28:36;99532.63;;;25.82;41.36
16664;BME280;8445;51.270;9.434;2023-05-23T09:31:06;99539.75;;;25.56;41.44
16664;BME280;8445;51.270;9.434;2023-05-23T09:33:47;99548.56;;;26.11;40.81
16664;BME280;8445;51.270;9.434;2023-05-23T09:36:14;99542.84;;;25.80;41.24
16664;BME280;8445;51.270;9.434;2023-05-23T09:38:43;99552.22;;;25.84;40.67
16664;BME280;8445;51.270;9.434;2023-05-23T09:41:09;99552.63;;;25.81;41.18
16664;BME280;8445;51.270;9.434;2023-05-23T09:43:39;99550.56;;;25.63;40.73
16664;BME280;8445;51.270;9.434;2023-05-23T09:46:11;99559.53;;;26.36;40.20
16664;BME280;8445;51.270;9.434;2023-05-23T09:48:37;99554.53;;;25.74;41.23
16664;BME280;8445;51.270;9.434;2023-05-23T09:51:04;99550.13;;;25.66;41.11
16664;BME280;8445;51.270;9.434;2023-05-23T09:53:30;99547.22;;;25.74;40.73
16664;BME280;8445;51.270;9.434;2023-05-23T09:55:58;99559.34;;;25.05;41.75
16664;BME280;8445;51.270;9.434;2023-05-23T09:58:25;99569.31;;;24.22;42.61
16664;BME280;8445;51.270;9.434;2023-05-23T10:00:52;99565.03;;;24.48;42.61
16664;BME280;8445;51.270;9.434;2023-05-23T10:03:23;99565.09;;;24.68;42.16
16664;BME280;8445;51.270;9.434;2023-05-23T10:06:15;99563.50;;;25.07;42.59
16664;BME280;8445;51.270;9.434;2023-05-23T10:08:45;99567.47;;;25.18;41.88
16664;BME280;8445;51.270;9.434;2023-05-23T10:11:29;99570.00;;;24.44;42.82
16664;BME280;8445;51.270;9.434;2023-05-23T10:14:09;99587.91;;;23.39;44.79
16664;BME280;8445;51.270;9.434;2023-05-23T10:21:59;99603.81;;;22.69;45.38
16664;BME280;8445;51.270;9.434;2023-05-23T10:24:30;99614.94;;;23.03;44.05
16664;BME280;8445;51.270;9.434;2023-05-23T10:27:01;99609.84;;;23.30;43.07
16664;BME280;8445;51.270;9.434;2023-05-23T10:29:31;99611.97;;;23.63;42.03
16664;BME280;8445;51.270;9.434;2023-05-23T10:32:03;99605.88;;;23.82;42.44
16664;BME280;8445;51.270;9.434;2023-05-23T10:37:06;99617.09;;;23.86;41.95
16664;BME280;8445;51.270;9.434;2023-05-23T10:45:16;99610.78;;;24.49;42.35
16664;BME280;8445;51.270;9.434;2023-05-23T10:47:42;99624.41;;;24.69;42.48
16664;BME280;8445;51.270;9.434;2023-05-23T10:50:12;99616.38;;;24.96;41.95
16664;BME280;8445;51.270;9.434;2023-05-23T10:52:39;99609.34;;;25.63;41.46
16664;BME280;8445;51.270;9.434;2023-05-23T10:55:13;99615.16;;;25.86;41.66
16664;BME280;8445;51.270;9.434;2023-05-23T10:57:39;99619.72;;;25.86;42.22
16664;BME280;8445;51.270;9.434;2023-05-23T11:00:16;99617.81;;;26.07;41.96
16664;BME280;8445;51.270;9.434;2023-05-23T11:02:52;99623.63;;;26.69;41.75
16664;BME280;8445;51.270;9.434;2023-05-23T11:05:20;99622.56;;;26.25;42.51
16664;BME280;8445;51.270;9.434;2023-05-23T11:08:08;99623.97;;;26.79;41.12
16664;BME280;8445;51.270;9.434;2023-05-23T11:10:54;99625.63;;;26.48;40.11
16664;BME280;8445;51.270;9.434;2023-05-23T11:13:20;99622.31;;;26.85;41.55
16664;BME280;8445;51.270;9.434;2023-05-23T11:15:46;99629.53;;;26.59;41.44
16664;BME280;8445;51.270;9.434;2023-05-23T11:18:25;99622.88;;;26.55;39.95
16664;BME280;8445;51.270;9.434;2023-05-23T11:20:54;99626.75;;;26.21;40.88
16664;BME280;8445;51.270;9.434;2023-05-23T11:23:39;99633.81;;;26.35;40.02
16664;BME280;8445;51.270;9.434;2023-05-23T11:26:32;99644.25;;;26.11;39.30
16664;BME280;8445;51.270;9.434;2023-05-23T11:29:01;99641.41;;;25.79;39.90
16664;BME280;8445;51.270;9.434;2023-05-23T11:31:40;99645.56;;;25.21;40.76
16664;BME280;8445;51.270;9.434;2023-05-23T11:34:10;99649.69;;;24.97;40.67
16664;BME280;8445;51.270;9.434;2023-05-23T11:36:36;99649.28;;;25.13;40.44
16664;BME280;8445;51.270;9.434;2023-05-23T11:39:02;99646.28;;;24.75;41.07
16664;BME280;8445;51.270;9.434;2023-05-23T11:41:31;99650.31;;;24.50;41.12
16664;BME280;8445;51.270;9.434;2023-05-23T11:43:57;99648.84;;;24.96;40.20
16664;BME280;8445;51.270;9.434;2023-05-23T11:46:24;99651.78;;;24.53;41.36
16664;BME280;8445;51.270;9.434;2023-05-23T11:48:49;99672.53;;;24.04;41.91
16664;BME280;8445;51.270;9.434;2023-05-23T11:51:16;99657.34;;;23.74;42.32
16664;BME280;8445;51.270;9.434;2023-05-23T11:53:41;99666.13;;;24.53;41.12
16664;BME280;8445;51.270;9.434;2023-05-23T11:56:07;99673.13;;;23.27;43.08
16664;BME280;8445;51.270;9.434;2023-05-23T11:58:37;99672.63;;;23.89;41.42
16664;BME280;8445;51.270;9.434;2023-05-23T12:01:07;99678.28;;;23.44;41.82
16664;BME280;8445;51.270;9.434;2023-05-23T12:03:54;99685.34;;;23.08;42.85
16664;BME280;8445;51.270;9.434;2023-05-23T12:06:20;99682.91;;;24.00;42.26
16664;BME280;8445;51.270;9.434;2023-05-23T12:08:46;99683.63;;;24.51;41.88
16664;BME280;8445;51.270;9.434;2023-05-23T12:11:12;99677.97;;;24.94;41.83
16664;BME280;8445;51.270;9.434;2023-05-23T12:13:40;99686.78;;;25.23;41.46
16664;BME280;8445;51.270;9.434;2023-05-23T12:16:06;99686.22;;;25.48;41.87
16664;BME280;8445;51.270;9.434;2023-05-23T12:18:32;99690.75;;;25.27;41.43
16664;BME280;8445;51.270;9.434;2023-05-23T12:21:04;99689.28;;;25.18;40.17
16664;BME280;8445;51.270;9.434;2023-05-23T12:23:32;99687.94;;;24.87;42.18
16664;BME280;8445;51.270;9.434;2023-05-23T12:25:58;99687.66;;;25.44;42.56
16664;BME280;8445;51.270;9.434;2023-05-23T12:31:08;99696.84;;;25.90;40.99
16664;BME280;8445;51.270;9.434;2023-05-23T12:33:37;99697.47;;;25.79;40.38
16664;BME280;8445;51.270;9.434;2023-05-23T12:36:03;99707.81;;;24.66;41.42
16664;BME280;8445;51.270;9.434;2023-05-23T12:38:28;99712.63;;;24.70;41.13
16664;BME280;8445;51.270;9.434;2023-05-23T12:41:07;99712.16;;;24.25;41.25
16664;BME280;8445;51.270;9.434;2023-05-23T12:43:36;99719.97;;;23.63;41.39
16664;BME280;8445;51.270;9.434;2023-05-23T12:46:04;99717.13;;;23.71;40.80
16664;BME280;8445;51.270;9.434;2023-05-23T12:48:33;99726.22;;;23.63;39.93
16664;BME280;8445;51.270;9.434;2023-05-23T12:50:58;99733.22;;;23.36;40.22
16664;BME280;8445;51.270;9.434;2023-05-23T12:53:28;99728.94;;;23.63;39.66
16664;BME280;8445;51.270;9.434;2023-05-23T12:55:56;99743.50;;;22.74;42.16
16664;BME280;8445;51.270;9.434;2023-05-23T12:58:25;99734.56;;;22.88;41.49
16664;BME280;8445;51.270;9.434;2023-05-23T13:00:55;99735.88;;;23.14;40.77
16664;BME280;8445;51.270;9.434;2023-05-23T13:03:25;99748.38;;;23.80;39.75
16664;BME280;8445;51.270;9.434;2023-05-23T13:05:54;99754.94;;;23.28;41.52
16664;BME280;8445;51.270;9.434;2023-05-23T13:08:27;99754.34;;;23.32;41.25
16664;BME280;8445;51.270;9.434;2023-05-23T13:11:01;99750.06;;;23.38;41.35
16664;BME280;8445;51.270;9.434;2023-05-23T13:13:35;99743.88;;;23.88;41.61
16664;BME280;8445;51.270;9.434;2023-05-23T13:16:05;99746.06;;;24.63;40.63
16664;BME280;8445;51.270;9.434;2023-05-23T13:18:38;99751.72;;;25.10;39.91
16664;BME280;8445;51.270;9.434;2023-05-23T13:21:08;99754.78;;;25.75;39.80
16664;BME280;8445;51.270;9.434;2023-05-23T13:23:38;99755.56;;;24.80;40.64
16664;BME280;8445;51.270;9.434;2023-05-23T13:26:08;99757.59;;;25.20;39.02
16664;BME280;8445;51.270;9.434;2023-05-23T13:28:38;99758.09;;;24.53;39.82
16664;BME280;8445;51.270;9.434;2023-05-23T13:31:07;99775.69;;;25.13;38.56
16664;BME280;8445;51.270;9.434;2023-05-23T13:33:36;99761.28;;;25.06;38.21
16664;BME280;8445;51.270;9.434;2023-05-23T13:36:06;99758.69;;;24.84;39.08
16664;BME280;8445;51.270;9.434;2023-05-23T13:38:35;99757.59;;;25.34;40.21
16664;BME280;8445;51.270;9.434;2023-05-23T13:41:05;99744.38;;;26.19;39.99